Time;durP1;ratioP1;P1;durP2;ratioP2;P2;SDS_P1;SDS_P2;PMS_P1;PMS_P2;Temp;Humidity;BMP_temperature;BMP_pressure;BME280_temperature;BME280_humidity;BME280_pressure;Samples;Min_cycle;Max_cycle;Signal;HPM_P1;HPM_P2
2022/06/21 00:00:39;;;;;;;8.67;3.90;;;12.40;99.90;;;;;;5012769;28;20264;-81
2022/06/21 00:03:08;;;;;;;6.57;3.17;;;12.40;99.90;;;;;;5012595;28;20197;-81
2022/06/21 00:05:38;;;;;;;11.77;3.40;;;12.40;99.90;;;;;;5013351;28;20594;-81
2022/06/21 00:08:07;;;;;;;6.57;3.07;;;12.40;99.90;;;;;;5012755;28;20178;-80
2022/06/21 00:10:36;;;;;;;9.10;3.47;;;12.40;99.90;;;;;;5012938;28;20175;-80
2022/06/21 00:13:08;;;;;;;7.53;3.50;;;12.10;99.90;;;;;;5012484;28;20195;-81
2022/06/21 00:15:33;;;;;;;8.03;3.20;;;12.10;99.90;;;;;;5012634;28;20202;-80
2022/06/21 00:17:59;;;;;;;9.13;3.63;;;12.10;99.90;;;;;;5012534;28;20170;-80
2022/06/21 00:20:26;;;;;;;10.10;3.87;;;11.90;99.90;;;;;;5012418;28;20637;-80
2022/06/21 00:22:52;;;;;;;9.57;3.20;;;12.00;99.90;;;;;;5012331;28;20663;-80
2022/06/21 00:25:23;;;;;;;6.33;3.40;;;12.00;99.90;;;;;;5012370;28;20201;-80
2022/06/21 00:27:49;;;;;;;7.40;3.40;;;11.90;99.90;;;;;;5012523;28;20170;-81
2022/06/21 00:30:17;;;;;;;9.17;3.47;;;11.90;99.90;;;;;;5012409;28;20175;-79
2022/06/21 00:32:44;;;;;;;10.20;3.40;;;11.60;99.90;;;;;;5013186;28;20663;-81
2022/06/21 00:35:14;;;;;;;7.73;3.33;;;11.90;99.90;;;;;;5011789;28;20196;-80
2022/06/21 00:37:41;;;;;;;12.37;3.50;;;11.70;99.90;;;;;;5012502;28;20182;-80
2022/06/21 00:40:28;;;;;;;8.90;3.67;;;11.60;99.90;;;;;;5011893;28;20175;-80
2022/06/21 00:43:05;;;;;;;15.93;3.43;;;11.60;99.90;;;;;;5010669;28;20639;-80
2022/06/21 00:45:42;;;;;;;7.53;3.30;;;11.40;99.90;;;;;;5011459;28;20546;-80
2022/06/21 00:48:31;;;;;;;7.90;3.40;;;11.50;99.90;;;;;;5011276;28;20202;-79
2022/06/21 00:51:31;;;;;;;11.60;3.40;;;11.30;99.90;;;;;;5011996;28;20182;-81
2022/06/21 00:54:02;;;;;;;8.60;3.00;;;11.50;99.90;;;;;;5013245;28;20256;-80
2022/06/21 00:56:35;;;;;;;14.57;3.90;;;11.50;99.90;;;;;;5012049;28;20697;-80
2022/06/21 00:59:27;;;;;;;6.90;3.20;;;11.50;99.90;;;;;;5011320;28;20644;-80
2022/06/21 01:02:02;;;;;;;14.47;3.13;;;11.20;99.90;;;;;;5011427;28;20195;-80
2022/06/21 01:04:35;;;;;;;5.87;3.40;;;11.10;99.90;;;;;;5011696;28;20259;-80
2022/06/21 01:07:06;;;;;;;8.70;3.37;;;11.00;99.90;;;;;;5011976;28;20181;-80
2022/06/21 01:09:34;;;;;;;8.73;3.27;;;11.10;99.90;;;;;;5011591;28;20181;-80
2022/06/21 01:12:02;;;;;;;7.50;3.30;;;11.00;99.90;;;;;;5012637;28;20194;-80
2022/06/21 01:14:31;;;;;;;10.57;3.43;;;10.90;99.90;;;;;;5011527;28;20538;-80
2022/06/21 01:16:58;;;;;;;11.80;3.50;;;10.80;99.90;;;;;;5011589;28;20471;-79
2022/06/21 01:19:51;;;;;;;9.37;3.63;;;10.70;99.90;;;;;;5011594;28;20174;-80
2022/06/21 01:22:58;;;;;;;7.37;3.40;;;10.80;99.90;;;;;;5011133;28;20190;-80
2022/06/21 01:26:14;;;;;;;8.07;3.40;;;10.80;99.90;;;;;;4990651;28;20177;-80
2022/06/21 01:28:40;;;;;;;9.43;3.43;;;11.00;99.90;;;;;;4974461;28;20209;-81
2022/06/21 01:31:06;;;;;;;8.17;3.50;;;11.10;99.90;;;;;;5003630;28;20183;-80
2022/06/21 01:33:38;;;;;;;8.20;3.27;;;10.90;99.90;;;;;;5011373;28;20229;-80
2022/06/21 01:36:11;;;;;;;8.97;3.27;;;10.80;99.90;;;;;;5011650;28;20549;-79
2022/06/21 01:38:49;;;;;;;7.70;3.50;;;10.70;99.90;;;;;;5011113;28;20665;-79
2022/06/21 01:41:20;;;;;;;7.20;2.97;;;10.70;99.90;;;;;;5011007;28;20204;-80
2022/06/21 01:43:48;;;;;;;10.97;3.70;;;10.60;99.90;;;;;;5011447;28;20512;-79
2022/06/21 01:46:19;;;;;;;10.93;4.07;;;10.80;99.90;;;;;;5011395;28;20227;-79
2022/06/21 01:48:51;;;;;;;8.37;3.70;;;10.80;99.90;;;;;;5011057;28;20539;-80
2022/06/21 01:51:27;;;;;;;5.77;3.53;;;10.60;99.90;;;;;;5010775;28;20178;-79
2022/06/21 01:53:54;;;;;;;12.10;2.97;;;10.80;99.90;;;;;;5012585;28;20330;-79
2022/06/21 01:56:25;;;;;;;10.80;3.83;;;10.70;99.90;;;;;;5014930;28;20205;-79
2022/06/21 01:58:59;;;;;;;11.77;3.67;;;10.90;99.90;;;;;;5014253;28;20179;-80
2022/06/21 02:01:33;;;;;;;7.53;3.20;;;10.80;99.90;;;;;;5014289;28;20189;-81
2022/06/21 02:04:01;;;;;;;7.07;3.37;;;10.80;99.90;;;;;;5014293;28;20179;-81
2022/06/21 02:06:31;;;;;;;8.83;3.17;;;10.90;99.90;;;;;;5014631;28;20319;-80
2022/06/21 02:09:07;;;;;;;8.77;3.73;;;10.70;99.90;;;;;;5014449;28;20186;-79
2022/06/21 02:11:45;;;;;;;11.63;3.73;;;10.60;99.90;;;;;;5014287;28;20181;-80
2022/06/21 02:14:30;;;;;;;6.40;3.53;;;10.70;99.90;;;;;;5014329;28;20175;-80
2022/06/21 02:17:20;;;;;;;10.00;3.63;;;10.70;99.90;;;;;;5014539;28;20230;-80
2022/06/21 02:20:11;;;;;;;5.57;3.03;;;10.70;99.90;;;;;;5014383;28;20192;-79
2022/06/21 02:22:37;;;;;;;6.50;3.70;;;10.80;99.90;;;;;;5015456;28;20191;-80
2022/06/21 02:25:04;;;;;;;9.10;3.23;;;10.80;99.90;;;;;;5015748;28;20188;-81
2022/06/21 02:27:33;;;;;;;8.27;3.70;;;10.80;99.90;;;;;;5016043;28;20174;-81
2022/06/21 02:30:01;;;;;;;7.17;3.30;;;10.60;99.90;;;;;;5015947;28;20641;-80
2022/06/21 02:32:36;;;;;;;6.93;3.23;;;10.70;99.90;;;;;;5016165;28;20295;-80
2022/06/21 02:35:24;;;;;;;10.47;3.73;;;10.80;99.90;;;;;;5015834;28;20204;-80
2022/06/21 02:37:53;;;;;;;7.03;3.40;;;10.70;99.90;;;;;;5016098;28;20585;-82
2022/06/21 02:40:38;;;;;;;8.77;3.60;;;10.50;99.90;;;;;;5016787;28;20661;-80
2022/06/21 02:43:10;;;;;;;7.53;3.23;;;10.30;99.90;;;;;;5016455;28;20190;-80
2022/06/21 02:46:01;;;;;;;14.63;4.10;;;10.10;99.90;;;;;;5015566;28;20175;-80
2022/06/21 02:48:34;;;;;;;6.47;3.50;;;10.20;99.90;;;;;;5014457;28;20560;-80
2022/06/21 02:51:08;;;;;;;17.07;4.10;;;10.10;99.90;;;;;;5015813;28;20255;-80
2022/06/21 02:53:40;;;;;;;8.07;3.40;;;10.10;99.90;;;;;;5015411;28;20192;-80
2022/06/21 02:56:11;;;;;;;10.37;3.60;;;10.20;99.90;;;;;;5015054;28;20289;-80
2022/06/21 02:58:40;;;;;;;5.47;3.70;;;10.30;99.90;;;;;;5014790;28;20175;-80
2022/06/21 03:01:16;;;;;;;6.90;3.70;;;10.30;99.90;;;;;;5015311;28;20218;-80
2022/06/21 03:03:42;;;;;;;8.00;3.30;;;10.30;99.90;;;;;;5015160;28;20224;-80
2022/06/21 03:06:13;;;;;;;6.63;3.27;;;10.30;99.90;;;;;;5014466;28;20180;-80
2022/06/21 03:08:48;;;;;;;7.37;3.40;;;10.30;99.90;;;;;;5015008;28;20179;-81
2022/06/21 03:11:15;;;;;;;5.97;3.27;;;10.20;99.90;;;;;;5014680;28;20203;-80
2022/06/21 03:13:41;;;;;;;8.90;3.80;;;10.10;99.90;;;;;;5014932;28;20213;-80
2022/06/21 03:16:12;;;;;;;10.57;3.87;;;10.20;99.90;;;;;;5014638;28;20567;-80
2022/06/21 03:18:44;;;;;;;10.87;3.80;;;10.30;99.90;;;;;;5014304;28;20177;-80
2022/06/21 03:21:12;;;;;;;6.97;3.43;;;10.20;99.90;;;;;;5014525;28;20254;-80
2022/06/21 03:26:06;;;;;;;8.37;3.63;;;10.20;99.90;;;;;;5013254;28;20675;-78
2022/06/21 03:28:37;;;;;;;7.87;3.30;;;10.20;99.90;;;;;;5013929;28;20608;-79
2022/06/21 03:31:17;;;;;;;9.60;3.70;;;10.20;99.90;;;;;;5013040;28;20172;-78
2022/06/21 03:33:47;;;;;;;9.17;3.73;;;10.30;99.90;;;;;;5013372;28;20690;-78
2022/06/21 03:36:16;;;;;;;13.27;3.40;;;10.10;99.90;;;;;;5013757;28;20239;-80
2022/06/21 03:38:45;;;;;;;8.53;3.53;;;10.10;99.90;;;;;;5013862;28;20179;-80
2022/06/21 03:44:07;;;;;;;8.80;3.53;;;10.10;99.90;;;;;;5015171;28;20178;-79
2022/06/21 03:46:50;;;;;;;11.30;4.37;;;10.30;99.90;;;;;;5013851;28;20175;-79
2022/06/21 03:49:22;;;;;;;7.87;4.40;;;10.30;99.90;;;;;;5012986;28;20177;-80
2022/06/21 03:51:48;;;;;;;8.10;3.90;;;10.20;99.90;;;;;;5013078;28;20257;-80
2022/06/21 03:54:22;;;;;;;15.60;4.60;;;10.30;99.90;;;;;;5013105;28;20181;-81
2022/06/21 03:56:52;;;;;;;8.43;4.20;;;10.40;99.90;;;;;;5013190;28;20237;-80
2022/06/21 03:59:45;;;;;;;7.40;4.10;;;10.30;99.90;;;;;;5012706;28;20168;-80
2022/06/21 04:02:20;;;;;;;9.23;3.93;;;10.40;99.90;;;;;;5012913;28;20198;-80
2022/06/21 04:05:07;;;;;;;9.30;4.53;;;10.50;99.90;;;;;;5013464;28;20232;-80
2022/06/21 04:07:38;;;;;;;11.77;4.83;;;10.40;99.90;;;;;;5013027;28;20175;-79
2022/06/21 04:10:13;;;;;;;9.80;4.33;;;10.40;99.90;;;;;;5012851;28;20174;-80
2022/06/21 04:12:44;;;;;;;6.57;4.17;;;10.60;99.90;;;;;;5012570;28;20188;-80
2022/06/21 04:15:19;;;;;;;6.90;4.37;;;10.70;99.90;;;;;;5012581;28;20201;-80
2022/06/21 04:18:01;;;;;;;9.97;4.63;;;10.80;99.90;;;;;;5012374;28;20175;-79
2022/06/21 04:20:51;;;;;;;12.20;4.30;;;10.80;99.90;;;;;;5012702;28;20181;-79
2022/06/21 04:23:48;;;;;;;10.40;4.70;;;10.90;99.90;;;;;;5009117;28;20224;-79
2022/06/21 04:26:35;;;;;;;9.77;4.43;;;11.00;99.90;;;;;;5013170;28;20197;-80
2022/06/21 04:29:03;;;;;;;8.77;4.63;;;11.00;99.90;;;;;;5012596;28;20256;-79
2022/06/21 04:31:36;;;;;;;10.20;4.53;;;11.20;99.90;;;;;;5012481;28;20248;-79
2022/06/21 04:34:26;;;;;;;10.73;4.37;;;11.50;99.90;;;;;;5012594;28;20278;-79
2022/06/21 04:37:04;;;;;;;7.90;3.70;;;12.00;99.90;;;;;;5012971;28;20210;-79
2022/06/21 04:40:09;;;;;;;11.03;3.53;;;12.20;99.90;;;;;;5012763;28;20189;-79
2022/06/21 04:42:51;;;;;;;9.10;3.57;;;12.30;99.90;;;;;;4992503;28;20289;-78
2022/06/21 04:45:38;;;;;;;10.47;3.17;;;12.60;99.90;;;;;;5009137;28;20223;-79
2022/06/21 04:48:21;;;;;;;8.47;2.70;;;13.40;99.90;;;;;;5012824;28;20277;-79
2022/06/21 04:50:59;;;;;;;6.07;2.90;;;13.50;99.90;;;;;;5013754;28;20622;-80
2022/06/21 04:53:49;;;;;;;11.20;2.70;;;13.70;99.90;;;;;;5013635;28;20269;-79
2022/06/21 04:56:51;;;;;;;11.13;2.87;;;13.90;99.90;;;;;;5013062;28;20264;-79
2022/06/21 04:59:33;;;;;;;7.17;3.33;;;14.00;99.90;;;;;;5012368;28;20642;-82
2022/06/21 05:02:00;;;;;;;9.43;2.77;;;14.50;99.90;;;;;;5012303;28;20813;-81
2022/06/21 05:04:35;;;;;;;7.83;2.90;;;14.70;99.90;;;;;;5012773;28;20171;-81
2022/06/21 05:07:04;;;;;;;8.30;3.17;;;14.40;99.90;;;;;;5012698;28;20649;-80
2022/06/21 05:09:32;;;;;;;11.97;2.80;;;14.40;99.90;;;;;;5012523;28;20182;-82
2022/06/21 05:12:22;;;;;;;5.63;2.63;;;14.60;99.90;;;;;;5012328;28;20194;-80
2022/06/21 05:14:52;;;;;;;7.50;2.87;;;14.70;99.90;;;;;;5011689;28;20178;-81
2022/06/21 05:17:20;;;;;;;7.10;3.03;;;14.70;99.90;;;;;;5012232;28;20273;-82
2022/06/21 05:19:54;;;;;;;11.23;3.30;;;15.10;99.90;;;;;;5011911;28;20599;-81
2022/06/21 05:22:32;;;;;;;9.43;2.75;;;15.00;99.90;;;;;;5011926;28;20315;-80
2022/06/21 05:25:00;;;;;;;6.10;2.30;;;15.00;99.90;;;;;;5012021;28;20240;-79
2022/06/21 05:27:34;;;;;;;9.65;2.83;;;15.20;99.90;;;;;;5013142;28;20178;-80
2022/06/21 05:30:10;;;;;;;9.10;2.70;;;15.30;99.90;;;;;;5015892;28;20209;-81
2022/06/21 05:32:42;;;;;;;11.43;3.03;;;15.70;99.90;;;;;;5016096;28;20194;-79
2022/06/21 05:35:18;;;;;;;13.63;2.80;;;15.80;99.90;;;;;;5015953;28;20607;-80
2022/06/21 05:37:51;;;;;;;9.98;2.78;;;16.00;99.90;;;;;;5016645;28;20173;-78
2022/06/21 05:40:36;;;;;;;10.98;3.50;;;15.90;99.90;;;;;;5016449;28;20225;-81
2022/06/21 05:43:02;;;;;;;8.13;2.30;;;15.50;99.90;;;;;;5016143;28;20191;-80
2022/06/21 05:45:34;;;;;;;9.68;2.70;;;15.60;99.90;;;;;;5016524;28;20236;-79
2022/06/21 05:48:04;;;;;;;9.52;3.08;;;16.40;99.90;;;;;;5016361;28;20181;-80
2022/06/21 05:50:34;;;;;;;8.07;2.78;;;16.60;99.90;;;;;;5016218;28;20178;-78
2022/06/21 05:53:33;;;;;;;16.98;3.22;;;16.20;99.90;;;;;;5015800;28;20198;-79
2022/06/21 05:56:10;;;;;;;14.45;2.38;;;16.50;99.90;;;;;;5018492;28;20210;-79
2022/06/21 05:58:42;;;;;;;8.55;2.63;;;16.50;99.90;;;;;;5016696;28;20167;-80
2022/06/21 06:01:23;;;;;;;13.57;2.80;;;17.00;99.90;;;;;;5016965;28;20555;-80
2022/06/21 06:03:51;;;;;;;9.00;2.20;;;17.50;99.90;;;;;;5016521;28;20178;-80
2022/06/21 06:06:20;;;;;;;7.70;2.20;;;16.70;99.90;;;;;;5016605;28;20181;-80
2022/06/21 06:08:50;;;;;;;11.05;2.80;;;17.20;99.90;;;;;;5015664;28;20182;-79
2022/06/21 06:11:24;;;;;;;7.75;2.20;;;17.40;99.90;;;;;;5016846;28;20182;-79
2022/06/21 06:13:52;;;;;;;9.40;2.25;;;17.60;99.90;;;;;;5017823;28;20644;-81
2022/06/21 06:16:30;;;;;;;12.30;2.53;;;18.30;99.90;;;;;;5016282;28;20272;-80
2022/06/21 06:19:10;;;;;;;10.45;2.70;;;17.90;99.90;;;;;;5017124;28;20174;-80
2022/06/21 06:21:44;;;;;;;7.45;2.28;;;18.00;99.90;;;;;;5016495;28;20654;-81
2022/06/21 06:24:21;;;;;;;8.55;2.80;;;18.20;99.90;;;;;;5017061;28;20189;-81
2022/06/21 06:26:53;;;;;;;8.80;3.08;;;18.60;99.90;;;;;;5016402;28;20178;-80
2022/06/21 06:29:33;;;;;;;10.95;2.42;;;18.50;99.90;;;;;;5016526;28;20175;-81
2022/06/21 06:32:29;;;;;;;8.88;2.47;;;18.10;99.90;;;;;;5015406;28;20201;-78
2022/06/21 06:34:55;;;;;;;6.38;2.10;;;18.50;99.90;;;;;;5000629;28;20187;-80
2022/06/21 06:37:33;;;;;;;9.23;2.53;;;18.10;99.90;;;;;;5015746;28;20174;-79
2022/06/21 06:40:00;;;;;;;7.95;2.20;;;18.10;99.90;;;;;;5014830;28;20166;-78
2022/06/21 06:42:29;;;;;;;13.05;2.60;;;18.30;99.90;;;;;;5015685;28;20567;-80
2022/06/21 06:45:03;;;;;;;9.23;2.60;;;18.80;99.90;;;;;;5015958;28;20170;-79
2022/06/21 06:47:39;;;;;;;8.55;2.58;;;18.70;99.90;;;;;;5014412;28;20178;-79
2022/06/21 06:50:14;;;;;;;10.55;2.58;;;18.10;99.90;;;;;;5014915;28;20171;-81
2022/06/21 06:52:46;;;;;;;11.90;2.42;;;18.30;99.90;;;;;;5015119;28;20602;-80
2022/06/21 06:55:40;;;;;;;12.75;2.80;;;18.90;99.90;;;;;;5014668;28;20285;-80
2022/06/21 06:58:09;;;;;;;10.18;2.00;;;19.10;99.40;;;;;;5014346;28;20186;-80
2022/06/21 07:00:42;;;;;;;16.65;2.38;;;19.90;98.60;;;;;;5015070;28;20202;-79
2022/06/21 07:04:04;;;;;;;6.25;2.25;;;19.40;98.80;;;;;;5014318;28;20191;-80
2022/06/21 07:07:00;;;;;;;7.90;2.00;;;19.20;97.60;;;;;;4993667;28;20187;-79
2022/06/21 07:09:36;;;;;;;12.50;2.75;;;18.80;98.30;;;;;;5015254;28;20182;-79
2022/06/21 07:12:07;;;;;;;7.85;2.40;;;19.60;97.10;;;;;;5013568;28;20248;-80
2022/06/21 07:14:35;;;;;;;12.52;2.33;;;19.60;95.90;;;;;;5013255;28;20171;-79
2022/06/21 07:17:17;;;;;;;9.60;1.90;;;19.50;97.20;;;;;;5014094;28;20709;-78
2022/06/21 07:19:43;;;;;;;11.30;2.47;;;19.10;97.10;;;;;;5014139;28;20265;-76
2022/06/21 07:22:19;;;;;;;12.73;2.33;;;19.00;97.10;;;;;;5013037;28;20281;-76
2022/06/21 07:25:01;;;;;;;13.60;2.67;;;19.10;97.70;;;;;;5012873;28;20186;-77
2022/06/21 07:27:29;;;;;;;7.65;1.77;;;19.50;97.20;;;;;;5013669;28;20174;-77
2022/06/21 07:30:21;;;;;;;9.07;2.00;;;18.90;97.00;;;;;;5012948;28;20586;-77
2022/06/21 07:33:04;;;;;;;8.10;2.03;;;20.30;96.70;;;;;;5012971;28;20219;-76
2022/06/21 07:35:36;;;;;;;8.90;2.13;;;20.10;95.50;;;;;;5012976;28;20203;-76
2022/06/21 07:38:27;;;;;;;5.80;1.90;;;19.50;96.60;;;;;;5013926;28;20178;-77
2022/06/21 07:41:09;;;;;;;8.23;1.73;;;20.10;95.10;;;;;;5013395;28;20167;-77
2022/06/21 07:43:40;;;;;;;6.05;1.70;;;19.70;95.10;;;;;;5012973;28;20570;-77
2022/06/21 07:46:08;;;;;;;8.10;1.80;;;21.10;93.90;;;;;;5013017;28;20174;-79
2022/06/21 07:48:48;;;;;;;10.32;1.75;;;21.10;93.00;;;;;;5011513;28;20712;-77
2022/06/21 07:51:36;;;;;;;7.05;2.05;;;21.00;93.40;;;;;;5013035;28;20273;-78
2022/06/21 07:54:06;;;;;;;12.27;2.55;;;20.80;93.20;;;;;;5014202;28;20178;-78
2022/06/21 07:56:39;;;;;;;7.82;2.00;;;19.70;93.70;;;;;;5014198;28;20232;-78
2022/06/21 07:59:43;;;;;;;3.65;1.50;;;20.10;94.50;;;;;;5014011;28;20266;-78
2022/06/21 08:07:53;;;;;;;8.23;2.50;;;20.00;94.60;;;;;;5013981;28;20185;-77
2022/06/21 08:10:19;;;;;;;9.80;1.92;;;20.20;94.80;;;;;;5012505;28;20229;-78
2022/06/21 08:12:45;;;;;;;9.32;1.75;;;20.50;93.90;;;;;;5012506;28;20595;-77
2022/06/21 08:15:11;;;;;;;7.75;2.00;;;20.60;94.10;;;;;;5012169;28;20378;-78
2022/06/21 08:17:39;;;;;;;11.45;2.00;;;21.70;92.50;;;;;;5012809;28;20175;-77
2022/06/21 08:20:11;;;;;;;7.60;1.60;;;20.60;92.30;;;;;;5012464;28;20171;-77
2022/06/21 08:22:50;;;;;;;6.95;1.75;;;21.20;93.00;;;;;;5012552;28;20201;-76
2022/06/21 08:25:44;;;;;;;9.98;2.00;;;21.70;92.00;;;;;;5012008;28;20605;-78
2022/06/21 08:28:19;;;;;;;4.82;1.88;;;22.00;91.30;;;;;;5014310;28;20170;-78
2022/06/21 08:31:00;;;;;;;7.13;1.90;;;21.60;91.30;;;;;;5012017;28;20174;-76
2022/06/21 08:33:43;;;;;;;18.08;2.63;;;20.30;91.70;;;;;;5012465;28;20253;-78
2022/06/21 08:36:18;;;;;;;6.55;2.05;;;20.70;92.80;;;;;;5012809;28;20206;-78
2022/06/21 08:38:51;;;;;;;14.57;1.90;;;21.50;92.20;;;;;;5012512;28;20166;-77
2022/06/21 08:41:54;;;;;;;11.73;1.90;;;21.90;91.40;;;;;;5012862;28;20305;-79
2022/06/21 08:48:19;;;;;;;8.52;2.38;;;21.30;91.30;;;;;;5014682;28;20177;-79
2022/06/21 08:50:57;;;;;;;7.43;1.75;;;22.40;90.50;;;;;;5015510;28;20178;-79
2022/06/21 08:53:44;;;;;;;7.05;1.60;;;22.80;90.60;;;;;;5014295;28;20237;-77
2022/06/21 08:56:21;;;;;;;6.95;1.90;;;22.40;90.20;;;;;;5013941;28;20194;-76
2022/06/21 08:59:18;;;;;;;9.18;1.75;;;21.90;90.20;;;;;;5014158;28;20534;-78
2022/06/21 09:02:00;;;;;;;10.68;1.85;;;21.60;90.00;;;;;;5014386;28;20244;-78
2022/06/21 09:04:39;;;;;;;8.65;2.05;;;21.50;89.80;;;;;;5015557;28;20170;-78
2022/06/21 09:07:33;;;;;;;5.88;1.85;;;22.00;90.00;;;;;;5015426;28;20189;-79
2022/06/21 09:10:16;;;;;;;4.93;1.63;;;23.10;88.90;;;;;;5014600;28;20593;-78
2022/06/21 09:13:13;;;;;;;7.78;1.52;;;23.30;85.80;;;;;;5014378;28;20222;-77
2022/06/21 09:16:01;;;;;;;5.72;1.40;;;22.80;87.40;;;;;;5014765;28;20202;-78
2022/06/21 09:18:44;;;;;;;7.10;1.83;;;22.70;86.70;;;;;;5013495;28;20181;-78
2022/06/21 09:21:25;;;;;;;3.22;1.50;;;22.00;87.00;;;;;;5014874;28;20635;-77
2022/06/21 09:23:56;;;;;;;6.47;1.50;;;21.80;88.60;;;;;;5014392;28;20174;-78
2022/06/21 09:26:37;;;;;;;10.18;1.83;;;22.80;83.60;;;;;;5053660;23;20217;-76
2022/06/21 09:29:18;;;;;;;3.83;1.55;;;21.60;86.20;;;;;;5050719;28;20165;-76
2022/06/21 09:32:01;;;;;;;4.10;1.33;;;23.10;83.70;;;;;;5050443;28;20207;-77
2022/06/21 09:34:59;;;;;;;7.90;1.40;;;23.10;83.20;;;;;;5050579;28;20312;-77
2022/06/21 09:37:36;;;;;;;3.83;1.73;;;23.70;82.40;;;;;;5047325;28;20189;-77
2022/06/21 09:40:26;;;;;;;5.25;1.58;;;22.30;81.60;;;;;;5049751;28;20205;-77
2022/06/21 09:43:28;;;;;;;6.88;1.40;;;22.50;84.10;;;;;;5050154;28;20276;-77
2022/06/21 09:46:12;;;;;;;5.60;1.65;;;23.20;83.40;;;;;;5050484;28;20173;-77
2022/06/21 09:48:45;;;;;;;7.00;1.35;;;24.40;80.50;;;;;;5049925;28;20173;-77
2022/06/21 09:51:28;;;;;;;5.50;1.27;;;23.50;80.60;;;;;;5049614;28;20165;-77
2022/06/21 09:54:27;;;;;;;5.57;1.45;;;23.90;80.50;;;;;;5050439;28;20173;-77
2022/06/21 09:57:29;;;;;;;7.25;1.60;;;23.70;80.80;;;;;;5050204;28;20216;-77
2022/06/21 10:00:04;;;;;;;4.45;1.33;;;22.70;81.20;;;;;;5050342;28;20201;-77
2022/06/21 10:02:47;;;;;;;13.43;1.83;;;22.90;77.80;;;;;;5051227;28;20188;-77
2022/06/21 10:05:16;;;;;;;2.67;1.17;;;23.00;80.20;;;;;;5050375;28;20608;-77
2022/06/21 10:07:55;;;;;;;4.57;1.23;;;22.90;77.90;;;;;;5050176;28;20258;-77
2022/06/21 10:10:23;;;;;;;6.40;1.60;;;24.20;77.10;;;;;;5050199;28;20188;-77
2022/06/21 10:12:55;;;;;;;3.92;1.50;;;23.10;77.50;;;;;;5049780;28;20194;-77
2022/06/21 10:15:21;;;;;;;8.25;1.40;;;24.10;78.80;;;;;;5051954;28;20599;-77
2022/06/21 10:17:46;;;;;;;2.78;1.25;;;24.90;76.10;;;;;;5053847;28;20180;-77
2022/06/21 10:20:34;;;;;;;7.25;1.30;;;24.50;74.10;;;;;;5053752;28;20169;-77
2022/06/21 10:23:11;;;;;;;1.85;1.20;;;24.60;76.00;;;;;;5053645;28;20219;-77
2022/06/21 10:25:56;;;;;;;3.17;1.23;;;24.00;74.70;;;;;;5054802;28;20196;-77
2022/06/21 10:28:21;;;;;;;4.25;1.10;;;24.50;75.10;;;;;;5053538;28;20176;-77
2022/06/21 10:31:11;;;;;;;2.70;1.10;;;24.70;72.70;;;;;;5053466;28;20177;-77
2022/06/21 10:33:58;;;;;;;5.47;1.30;;;24.70;72.70;;;;;;5053488;28;20693;-77
2022/06/21 10:37:02;;;;;;;4.80;1.20;;;25.80;72.30;;;;;;5053226;28;20543;-77
2022/06/21 10:39:31;;;;;;;10.02;1.20;;;24.70;71.20;;;;;;5053432;28;20204;-77
2022/06/21 10:42:48;;;;;;;6.55;1.33;;;23.80;72.40;;;;;;5052652;28;20558;-76
2022/06/21 10:45:28;;;;;;;3.05;1.10;;;23.40;71.50;;;;;;5053284;28;20177;-76
2022/06/21 10:48:22;;;;;;;15.80;1.50;;;23.20;72.80;;;;;;5052973;28;20513;-77
2022/06/21 10:50:56;;;;;;;2.83;1.10;;;24.50;71.90;;;;;;5053789;28;20188;-77
2022/06/21 10:53:31;;;;;;;4.05;1.13;;;23.80;71.30;;;;;;5052758;28;20192;-77
2022/06/21 10:59:29;;;;;;;6.57;1.35;;;23.90;72.70;;;;;;5054293;28;20215;-77
2022/06/21 11:02:19;;;;;;;4.00;1.40;;;23.50;73.10;;;;;;5052733;28;20186;-77
2022/06/21 11:05:04;;;;;;;5.18;1.48;;;23.60;73.70;;;;;;5052652;28;20223;-77
2022/06/21 11:07:52;;;;;;;7.82;1.73;;;23.60;75.10;;;;;;5052807;28;20540;-77
2022/06/21 11:10:24;;;;;;;4.38;1.67;;;24.10;74.30;;;;;;5052736;28;20173;-77
2022/06/21 11:12:53;;;;;;;5.15;1.58;;;24.60;74.60;;;;;;5052703;28;20246;-77
2022/06/21 11:15:50;;;;;;;3.78;1.40;;;24.70;73.70;;;;;;5052606;28;20250;-77
2022/06/21 11:18:30;;;;;;;5.25;1.40;;;24.20;74.70;;;;;;5052654;28;20264;-77
2022/06/21 11:21:12;;;;;;;7.20;1.38;;;23.60;75.40;;;;;;5052506;28;20165;-77
2022/06/21 11:24:19;;;;;;;8.18;1.70;;;23.40;74.70;;;;;;5052393;28;20197;-77
2022/06/21 11:27:08;;;;;;;3.33;1.33;;;23.10;75.00;;;;;;4994807;28;20276;-77
2022/06/21 11:29:57;;;;;;;5.53;1.45;;;23.30;75.50;;;;;;5052104;28;20188;-77
2022/06/21 11:32:50;;;;;;;7.85;1.73;;;23.40;74.70;;;;;;5052062;28;20193;-77
2022/06/21 11:35:15;;;;;;;9.13;1.50;;;23.30;74.40;;;;;;5052385;28;20243;-77
2022/06/21 11:37:49;;;;;;;5.72;1.60;;;23.20;76.00;;;;;;5052281;28;20181;-77
2022/06/21 11:40:46;;;;;;;8.75;1.58;;;23.70;74.30;;;;;;5051846;28;20205;-77
2022/06/21 11:43:24;;;;;;;6.45;1.58;;;24.30;73.20;;;;;;5030622;28;20197;-77
2022/06/21 11:45:55;;;;;;;6.07;1.52;;;24.50;74.30;;;;;;5052357;28;20727;-77
2022/06/21 11:48:47;;;;;;;4.85;1.60;;;24.70;74.20;;;;;;5051588;28;20177;-77
2022/06/21 11:51:45;;;;;;;10.13;1.30;;;24.20;74.60;;;;;;5050974;28;20539;-76
2022/06/21 11:54:15;;;;;;;4.28;1.55;;;24.30;75.20;;;;;;5051941;28;20173;-78
2022/06/21 11:57:13;;;;;;;6.78;1.60;;;24.20;72.50;;;;;;5051839;28;20300;-77
2022/06/21 11:59:47;;;;;;;3.70;1.58;;;24.90;73.50;;;;;;5051850;28;20165;-77
2022/06/21 12:02:39;;;;;;;8.05;1.75;;;24.70;73.70;;;;;;5051533;28;20189;-76
2022/06/21 12:05:28;;;;;;;12.32;1.88;;;24.80;72.90;;;;;;5052852;28;20184;-77
2022/06/21 12:08:15;;;;;;;2.10;1.00;;;24.80;70.70;;;;;;5051210;28;20172;-76
2022/06/21 12:10:51;;;;;;;3.95;1.48;;;24.10;70.80;;;;;;5051620;28;20179;-78
2022/06/21 12:13:17;;;;;;;6.80;1.30;;;23.60;72.90;;;;;;5051521;28;20252;-77
2022/06/21 12:15:55;;;;;;;7.65;1.50;;;23.90;73.30;;;;;;5051140;28;20638;-77
2022/06/21 12:18:28;;;;;;;6.30;1.75;;;24.10;72.60;;;;;;5050506;28;20199;-77
2022/06/21 12:21:00;;;;;;;6.22;1.60;;;23.40;74.40;;;;;;5050173;28;20260;-77
2022/06/21 12:23:37;;;;;;;10.73;1.73;;;23.10;75.00;;;;;;5050682;28;20681;-79
2022/06/21 12:26:05;;;;;;;2.38;1.38;;;23.20;73.80;;;;;;5050458;28;20621;-86
2022/06/21 12:28:35;;;;;;;3.40;1.30;;;23.80;74.80;;;;;;5052268;28;20180;-83
2022/06/21 12:31:11;;;;;;;3.15;1.30;;;24.30;72.10;;;;;;5051312;28;20510;-85
2022/06/21 12:33:38;;;;;;;8.30;1.23;;;24.20;73.70;;;;;;5051488;28;20287;-85
2022/06/21 12:36:13;;;;;;;8.63;1.55;;;23.80;72.90;;;;;;5051816;28;20665;-86
2022/06/21 12:38:54;;;;;;;5.60;1.55;;;23.70;72.70;;;;;;5050774;28;20252;-85
2022/06/21 12:41:37;;;;;;;6.38;1.60;;;23.40;73.00;;;;;;5051668;28;20157;-85
2022/06/21 12:44:37;;;;;;;4.05;1.30;;;23.00;72.70;;;;;;5052457;28;20165;-86
2022/06/21 12:47:32;;;;;;;6.30;1.50;;;23.10;74.00;;;;;;5054089;28;20169;-86
2022/06/21 12:50:36;;;;;;;6.00;1.58;;;23.70;72.30;;;;;;5051863;28;20169;-85
2022/06/21 12:53:30;;;;;;;4.85;1.48;;;23.30;73.80;;;;;;5051847;28;20204;-85
2022/06/21 12:56:17;;;;;;;4.22;1.58;;;23.10;73.30;;;;;;5051163;28;20189;-86
2022/06/21 12:59:22;;;;;;;21.85;1.80;;;22.90;73.20;;;;;;5034217;28;20205;-85
2022/06/21 13:01:55;;;;;;;2.72;1.20;;;23.10;73.70;;;;;;5050450;28;20189;-84
2022/06/21 13:04:30;;;;;;;5.53;1.40;;;22.70;72.80;;;;;;5050181;28;20783;-84
2022/06/21 13:07:17;;;;;;;5.05;1.35;;;23.00;73.60;;;;;;5050023;28;20173;-84
2022/06/21 13:10:17;;;;;;;2.97;1.17;;;23.70;74.70;;;;;;5048536;28;20223;-84
2022/06/21 13:12:57;;;;;;;3.15;1.33;;;23.70;71.10;;;;;;5030446;28;20901;-86
2022/06/21 13:15:48;;;;;;;6.72;2.03;;;23.80;74.40;;;;;;5049892;28;20806;-83
2022/06/21 13:18:35;;;;;;;4.35;1.35;;;23.70;73.20;;;;;;5049706;28;20172;-81
2022/06/21 13:21:04;;;;;;;5.65;1.65;;;23.70;73.70;;;;;;5050446;28;20181;-83
2022/06/21 13:24:08;;;;;;;9.48;1.42;;;23.40;73.80;;;;;;5050553;28;20216;-80
2022/06/21 13:27:18;;;;;;;6.50;1.20;;;22.70;73.90;;;;;;5051285;28;20177;-81
2022/06/21 13:29:44;;;;;;;5.00;1.25;;;23.30;73.60;;;;;;5041990;28;20560;-78
2022/06/21 13:32:27;;;;;;;5.05;1.27;;;22.50;72.80;;;;;;5049589;28;20197;-77
2022/06/21 13:34:52;;;;;;;4.25;1.60;;;23.20;72.30;;;;;;5050183;28;20223;-79
2022/06/21 13:37:37;;;;;;;6.18;1.20;;;23.40;71.10;;;;;;5049393;28;20208;-79
2022/06/21 13:40:30;;;;;;;1.90;1.00;;;23.20;70.50;;;;;;5049925;28;20188;-79
2022/06/21 13:43:06;;;;;;;3.03;1.10;;;23.00;70.60;;;;;;5049959;28;20331;-80
2022/06/21 13:46:02;;;;;;;2.28;1.10;;;22.70;71.60;;;;;;5049533;28;20178;-80
2022/06/21 13:48:46;;;;;;;8.52;1.50;;;22.70;71.20;;;;;;5050561;28;20169;-82
2022/06/21 13:51:15;;;;;;;9.38;1.40;;;22.90;72.90;;;;;;5053178;28;20172;-82
2022/06/21 13:53:53;;;;;;;4.28;1.40;;;23.30;70.40;;;;;;5053435;28;20289;-80
2022/06/21 13:56:28;;;;;;;11.68;2.15;;;23.40;72.00;;;;;;5052970;28;20204;-79
2022/06/21 13:59:01;;;;;;;6.07;1.50;;;23.20;71.90;;;;;;5053758;28;20180;-80
2022/06/21 14:01:45;;;;;;;3.03;1.63;;;22.90;73.00;;;;;;5052679;28;20174;-81